Time;durP1;ratioP1;P1;durP2;ratioP2;P2;SDS_P1;SDS_P2;PMS_P1;PMS_P2;Temp;Humidity;BMP_temperature;BMP_pressure;BME280_temperature;BME280_humidity;BME280_pressure;Samples;Min_cycle;Max_cycle;Signal;HPM_P1;HPM_P2
2022/08/25 00:01:10;;;;;;;9.18;6.00;;;20.90;99.90;;;;;;5128757;27;20072;-71
2022/08/25 00:03:36;;;;;;;9.80;5.73;;;20.90;99.90;;;;;;5114758;28;20044;-70
2022/08/25 00:06:04;;;;;;;10.10;5.43;;;20.80;99.90;;;;;;5082062;28;20040;-71
2022/08/25 00:08:30;;;;;;;8.77;5.53;;;20.80;99.90;;;;;;5079596;28;20040;-70
2022/08/25 00:10:55;;;;;;;11.95;5.80;;;20.80;99.90;;;;;;5128288;27;20177;-70
2022/08/25 00:13:21;;;;;;;9.05;5.57;;;20.80;99.90;;;;;;5110800;28;20115;-70
2022/08/25 00:15:47;;;;;;;8.30;5.25;;;20.80;99.90;;;;;;5095033;28;20075;-71
2022/08/25 00:18:12;;;;;;;7.57;5.28;;;20.70;99.90;;;;;;5096940;28;20607;-71
2022/08/25 00:20:38;;;;;;;8.55;5.20;;;20.70;99.90;;;;;;5093913;28;20373;-71
2022/08/25 00:23:03;;;;;;;8.23;5.00;;;20.70;99.90;;;;;;5076371;28;20082;-71
2022/08/25 00:25:29;;;;;;;10.55;5.10;;;20.70;99.90;;;;;;5076806;28;20043;-70
2022/08/25 00:27:55;;;;;;;8.00;5.05;;;20.70;99.90;;;;;;5128114;27;20032;-70
2022/08/25 00:30:21;;;;;;;7.10;4.88;;;20.70;99.90;;;;;;5127860;27;20036;-70
2022/08/25 00:32:47;;;;;;;8.02;5.18;;;20.70;99.90;;;;;;5076805;28;20032;-70
2022/08/25 00:35:13;;;;;;;8.00;5.00;;;20.70;99.90;;;;;;5110467;28;20051;-71
2022/08/25 00:37:39;;;;;;;8.98;5.30;;;20.70;99.90;;;;;;5124065;27;20043;-71
2022/08/25 00:40:06;;;;;;;9.48;5.53;;;20.60;99.90;;;;;;5100323;28;20119;-70
2022/08/25 00:42:31;;;;;;;7.95;5.30;;;20.60;99.90;;;;;;5110518;28;20032;-71
2022/08/25 00:44:57;;;;;;;8.63;4.93;;;20.60;99.90;;;;;;5127886;27;20039;-70
2022/08/25 00:47:23;;;;;;;6.85;4.43;;;20.50;99.90;;;;;;5125183;27;20484;-70
2022/08/25 00:49:55;;;;;;;7.50;4.93;;;20.50;99.90;;;;;;5092586;28;20028;-71
2022/08/25 00:52:26;;;;;;;;;;;20.50;99.90;;;;;;5093110;28;20050;-71
2022/08/25 00:54:55;;;;;;;8.18;4.63;;;20.40;99.90;;;;;;5110362;28;19927;-70
2022/08/25 00:57:32;;;;;;;7.07;4.70;;;20.50;99.90;;;;;;5106650;28;20438;-71
2022/08/25 00:59:58;;;;;;;7.10;4.57;;;20.40;99.90;;;;;;5126186;27;20093;-70
2022/08/25 01:02:24;;;;;;;7.88;4.45;;;20.30;99.90;;;;;;5110272;28;20035;-70
2022/08/25 01:04:49;;;;;;;10.10;5.03;;;20.30;99.90;;;;;;5127234;27;20596;-70
2022/08/25 01:07:18;;;;;;;7.03;4.18;;;20.30;99.90;;;;;;5140393;27;20062;-70
2022/08/25 01:09:46;;;;;;;9.52;4.82;;;20.40;99.90;;;;;;5103950;28;20043;-70
2022/08/25 01:12:11;;;;;;;8.55;4.80;;;20.30;99.90;;;;;;5092994;28;20040;-69
2022/08/25 01:14:37;;;;;;;6.90;4.40;;;20.30;99.90;;;;;;5109664;28;20040;-70
2022/08/25 01:17:03;;;;;;;9.15;5.18;;;20.30;99.90;;;;;;5109586;28;20146;-70
2022/08/25 01:19:32;;;;;;;7.53;4.68;;;20.30;99.90;;;;;;5075921;28;20059;-70
2022/08/25 01:21:58;;;;;;;8.77;4.60;;;20.30;99.90;;;;;;5109982;27;20032;-70
2022/08/25 01:24:35;;;;;;;7.10;4.57;;;20.20;99.90;;;;;;5109707;28;20082;-70
2022/08/25 01:27:01;;;;;;;7.82;4.78;;;20.20;99.90;;;;;;5095474;28;20059;-71
2022/08/25 01:29:28;;;;;;;8.45;4.65;;;20.20;99.90;;;;;;5108236;28;20043;-70
2022/08/25 01:31:57;;;;;;;8.20;4.40;;;20.20;99.90;;;;;;5092544;28;20071;-70
2022/08/25 01:34:26;;;;;;;7.10;4.30;;;20.20;99.90;;;;;;5092548;28;20042;-70
2022/08/25 01:36:52;;;;;;;9.75;4.00;;;20.20;99.90;;;;;;5119190;27;20075;-70
2022/08/25 01:39:18;;;;;;;9.30;4.65;;;20.20;99.90;;;;;;5107730;28;20059;-70
2022/08/25 01:42:03;;;;;;;7.43;4.80;;;20.20;99.90;;;;;;5126763;27;20036;-70
2022/08/25 01:44:29;;;;;;;7.65;4.40;;;20.20;99.90;;;;;;5092490;28;20048;-70
2022/08/25 01:46:55;;;;;;;8.93;4.78;;;20.10;99.90;;;;;;5118915;27;20047;-70
2022/08/25 01:49:21;;;;;;;7.70;4.43;;;20.10;99.90;;;;;;5141886;27;20085;-70
2022/08/25 01:51:54;;;;;;;8.68;4.63;;;20.00;99.90;;;;;;5109290;28;20067;-70
2022/08/25 01:54:20;;;;;;;6.10;3.80;;;20.10;99.90;;;;;;5092227;28;20042;-70
2022/08/25 01:56:45;;;;;;;7.32;4.40;;;20.00;99.90;;;;;;5117912;27;20031;-70
2022/08/25 01:59:15;;;;;;;7.93;4.40;;;20.00;99.90;;;;;;5111307;28;20481;-69
2022/08/25 02:01:40;;;;;;;7.10;4.13;;;20.00;99.90;;;;;;5095863;28;20104;-70
2022/08/25 02:04:06;;;;;;;6.55;4.10;;;20.00;99.90;;;;;;5146901;27;20071;-70
2022/08/25 02:06:32;;;;;;;7.57;4.07;;;19.90;99.90;;;;;;5111376;28;20421;-70
2022/08/25 02:09:04;;;;;;;6.55;4.13;;;19.90;99.90;;;;;;5111041;28;20107;-70
2022/08/25 02:11:31;;;;;;;6.05;3.90;;;19.90;99.90;;;;;;5109409;28;20392;-70
2022/08/25 02:13:58;;;;;;;6.88;4.25;;;19.90;99.90;;;;;;5075074;28;20108;-70
2022/08/25 02:16:28;;;;;;;7.53;4.47;;;19.90;99.90;;;;;;5097550;28;20040;-70
2022/08/25 02:18:55;;;;;;;8.70;4.75;;;19.80;99.90;;;;;;5112458;28;20495;-70
2022/08/25 02:21:21;;;;;;;7.47;4.10;;;19.70;99.90;;;;;;5091659;28;20036;-70
2022/08/25 02:23:47;;;;;;;7.05;3.70;;;19.70;99.90;;;;;;5091903;28;20043;-70
2022/08/25 02:26:17;;;;;;;8.52;4.22;;;19.70;99.90;;;;;;5130191;27;20114;-70
2022/08/25 02:28:44;;;;;;;8.27;3.95;;;19.60;99.90;;;;;;5112310;28;20052;-70
2022/08/25 02:31:10;;;;;;;6.70;4.00;;;19.60;99.90;;;;;;5094275;28;20051;-70
2022/08/25 02:33:36;;;;;;;7.68;4.18;;;19.60;99.90;;;;;;5112138;28;20395;-70
2022/08/25 02:36:03;;;;;;;7.28;4.70;;;19.60;99.90;;;;;;5111438;28;20027;-70
2022/08/25 02:38:29;;;;;;;8.32;4.15;;;19.60;99.90;;;;;;5112396;28;20062;-69
2022/08/25 02:40:57;;;;;;;6.82;4.15;;;19.60;99.90;;;;;;5144446;27;20034;-70
2022/08/25 02:43:24;;;;;;;8.57;4.75;;;19.60;99.90;;;;;;5111962;28;20071;-70
2022/08/25 02:45:50;;;;;;;7.55;3.90;;;19.60;99.90;;;;;;5095138;28;20594;-70
2022/08/25 02:48:16;;;;;;;7.40;4.05;;;19.60;99.90;;;;;;5111960;28;20044;-70
2022/08/25 02:50:46;;;;;;;9.52;4.63;;;19.60;99.90;;;;;;5128006;27;20045;-70
2022/08/25 02:53:12;;;;;;;8.02;4.38;;;19.60;99.90;;;;;;5082125;28;20035;-70
2022/08/25 02:55:39;;;;;;;8.20;4.60;;;19.60;99.90;;;;;;5082998;28;20044;-70
2022/08/25 02:58:05;;;;;;;7.82;4.07;;;19.60;99.90;;;;;;5092492;28;20028;-70
2022/08/25 03:00:31;;;;;;;7.43;4.38;;;19.60;99.90;;;;;;5087227;28;20496;-70
2022/08/25 03:02:56;;;;;;;10.27;4.90;;;19.60;99.90;;;;;;5111577;28;20036;-70
2022/08/25 03:05:22;;;;;;;6.95;4.30;;;19.60;99.90;;;;;;5098281;28;20047;-70
2022/08/25 03:07:47;;;;;;;9.50;4.32;;;19.60;99.90;;;;;;5095709;28;20047;-70
2022/08/25 03:10:17;;;;;;;9.30;4.63;;;19.60;99.90;;;;;;5088456;28;20492;-70
2022/08/25 03:12:44;;;;;;;8.90;4.70;;;19.60;99.90;;;;;;5109380;28;20046;-69
2022/08/25 03:15:13;;;;;;;7.50;4.10;;;19.70;99.90;;;;;;5098941;28;20048;-70
2022/08/25 03:17:39;;;;;;;7.72;4.32;;;19.70;99.90;;;;;;5098450;28;20063;-70
2022/08/25 03:20:05;;;;;;;8.50;4.53;;;19.80;99.90;;;;;;5102089;28;20074;-70
2022/08/25 03:22:31;;;;;;;8.10;4.65;;;19.80;99.90;;;;;;5134832;27;20106;-70
2022/08/25 03:26:52;;;;;;;9.75;4.82;;;19.80;99.90;;;;;;5148656;27;20043;-70
2022/08/25 03:27:43;;;;;;;8.45;4.35;;;19.70;99.90;;;;;;5113305;28;20061;-70
2022/08/25 03:30:10;;;;;;;7.43;4.60;;;19.70;99.90;;;;;;5085588;28;20400;-70
2022/08/25 03:32:35;;;;;;;8.70;4.30;;;19.70;99.90;;;;;;5098541;28;20135;-70
2022/08/25 03:35:01;;;;;;;8.55;4.10;;;19.60;99.90;;;;;;5110107;28;20559;-70
2022/08/25 03:37:27;;;;;;;7.95;4.25;;;19.60;99.90;;;;;;5098210;28;20119;-69
2022/08/25 03:39:52;;;;;;;8.63;4.55;;;19.50;99.90;;;;;;5138665;27;20128;-70
2022/08/25 03:42:18;;;;;;;7.00;4.13;;;19.50;99.90;;;;;;5085588;28;20135;-70
2022/08/25 03:44:44;;;;;;;8.88;4.43;;;19.50;99.90;;;;;;5108359;28;20043;-69
2022/08/25 03:47:10;;;;;;;7.53;4.10;;;19.40;99.90;;;;;;5111452;28;20043;-69
2022/08/25 03:49:35;;;;;;;8.45;3.97;;;19.30;99.90;;;;;;5085158;28;20036;-70
2022/08/25 03:52:02;;;;;;;8.52;4.07;;;19.30;99.90;;;;;;5105797;28;20036;-70
2022/08/25 03:54:28;;;;;;;7.20;4.00;;;19.30;99.90;;;;;;5108038;28;20595;-70
2022/08/25 03:56:54;;;;;;;7.55;4.10;;;19.20;99.90;;;;;;5112952;28;20502;-70
2022/08/25 03:59:19;;;;;;;9.30;4.20;;;19.30;99.90;;;;;;5097050;28;20626;-70
2022/08/25 04:01:46;;;;;;;8.77;4.50;;;19.20;99.90;;;;;;5092877;28;20043;-70
2022/08/25 04:04:14;;;;;;;9.80;4.50;;;19.10;99.90;;;;;;5085166;28;20039;-70
2022/08/25 04:06:41;;;;;;;7.45;3.83;;;19.10;99.90;;;;;;5116100;28;20046;-70
2022/08/25 04:09:06;;;;;;;11.10;4.07;;;19.10;99.90;;;;;;5112320;28;20032;-70
2022/08/25 04:11:32;;;;;;;7.43;4.00;;;19.10;99.90;;;;;;5130652;27;20031;-69
2022/08/25 04:14:00;;;;;;;6.95;4.28;;;19.10;99.90;;;;;;5094038;28;20187;-69
2022/08/25 04:16:29;;;;;;;10.27;4.55;;;19.00;99.90;;;;;;5094927;28;20526;-69
2022/08/25 04:18:57;;;;;;;7.53;4.07;;;19.00;99.90;;;;;;5109200;28;20067;-69
2022/08/25 04:21:24;;;;;;;11.32;4.10;;;19.00;99.90;;;;;;5110235;28;20043;-69
2022/08/25 04:23:51;;;;;;;9.07;4.20;;;19.00;99.90;;;;;;5076929;28;20044;-69
2022/08/25 04:26:24;;;;;;;7.05;3.92;;;19.00;99.90;;;;;;5096958;28;20032;-69
2022/08/25 04:28:50;;;;;;;9.38;4.38;;;18.90;99.90;;;;;;5090301;27;20050;-70
2022/08/25 04:31:17;;;;;;;6.88;4.05;;;18.90;99.90;;;;;;5112579;28;20114;-70
2022/08/25 04:33:43;;;;;;;6.65;3.92;;;18.90;99.90;;;;;;5112352;28;20469;-70
2022/08/25 04:36:10;;;;;;;10.80;4.32;;;19.00;99.90;;;;;;5127966;27;20119;-69
2022/08/25 04:38:37;;;;;;;9.02;4.50;;;18.90;99.90;;;;;;5100011;27;20399;-70
2022/08/25 04:41:05;;;;;;;7.90;3.97;;;18.90;99.90;;;;;;5084060;28;20040;-69
2022/08/25 04:43:32;;;;;;;10.98;4.70;;;18.90;99.90;;;;;;5110728;27;20044;-69
2022/08/25 04:45:58;;;;;;;7.10;4.32;;;18.80;99.90;;;;;;5086231;28;20441;-70
2022/08/25 04:48:24;;;;;;;7.32;4.20;;;18.80;99.90;;;;;;5106246;28;20043;-70
2022/08/25 04:50:50;;;;;;;7.82;4.38;;;18.80;99.90;;;;;;5103144;28;20052;-70
2022/08/25 04:53:16;;;;;;;9.75;4.50;;;18.80;99.90;;;;;;5110514;28;20050;-69
2022/08/25 04:55:47;;;;;;;9.73;4.65;;;18.70;99.90;;;;;;5087756;28;20496;-69
2022/08/25 04:58:15;;;;;;;8.60;4.38;;;18.80;99.90;;;;;;5093527;27;20529;-69
2022/08/25 05:00:41;;;;;;;10.23;4.50;;;18.80;99.90;;;;;;5141441;27;20036;-69
2022/08/25 05:03:08;;;;;;;9.05;3.92;;;18.80;99.90;;;;;;5082239;28;20064;-69
2022/08/25 05:05:36;;;;;;;8.63;4.35;;;18.80;99.90;;;;;;5096744;28;20036;-69
2022/08/25 05:08:03;;;;;;;6.93;4.50;;;18.80;99.90;;;;;;5092022;28;20494;-69
2022/08/25 05:10:28;;;;;;;8.10;4.70;;;18.80;99.90;;;;;;5112341;27;20180;-69
2022/08/25 05:12:54;;;;;;;9.85;4.97;;;18.80;99.90;;;;;;5101492;28;20535;-69
2022/08/25 05:18:04;;;;;;;10.23;4.45;;;18.70;99.90;;;;;;5122092;27;20555;-69
2022/08/25 05:20:30;;;;;;;10.57;4.50;;;18.80;99.90;;;;;;5101044;28;20043;-69
2022/08/25 05:22:56;;;;;;;9.50;4.47;;;18.80;99.90;;;;;;5093194;28;20032;-69
2022/08/25 05:25:22;;;;;;;8.45;4.50;;;18.80;99.90;;;;;;5104362;28;20046;-69
2022/08/25 05:27:48;;;;;;;10.68;4.82;;;18.80;99.90;;;;;;5092040;28;20092;-69
2022/08/25 05:30:14;;;;;;;9.02;4.90;;;18.80;99.90;;;;;;5113248;27;20035;-69
2022/08/25 05:32:39;;;;;;;9.07;4.57;;;18.80;99.90;;;;;;5093787;28;20035;-69
2022/08/25 05:35:06;;;;;;;9.23;4.70;;;18.90;99.90;;;;;;5117520;27;20499;-69
2022/08/25 05:37:32;;;;;;;7.80;4.40;;;18.90;99.90;;;;;;5092354;28;20176;-69
2022/08/25 05:39:59;;;;;;;10.02;5.47;;;18.90;99.90;;;;;;5098063;28;20594;-69
2022/08/25 05:42:26;;;;;;;8.95;4.72;;;18.90;99.90;;;;;;5088452;28;20164;-70
2022/08/25 05:44:53;;;;;;;7.63;4.43;;;18.90;99.90;;;;;;5108627;28;20043;-70
2022/08/25 05:47:18;;;;;;;8.02;4.78;;;19.00;99.90;;;;;;5086596;28;20031;-70
2022/08/25 05:49:44;;;;;;;9.13;4.80;;;19.00;99.90;;;;;;5128154;27;20377;-70
2022/08/25 05:52:09;;;;;;;8.30;4.45;;;19.10;99.90;;;;;;5079015;28;20044;-70
2022/08/25 05:54:35;;;;;;;8.60;4.60;;;19.20;99.90;;;;;;5122591;27;20613;-70
2022/08/25 05:57:01;;;;;;;14.45;4.78;;;19.20;99.90;;;;;;5091870;28;20032;-70
2022/08/25 05:59:26;;;;;;;8.38;4.53;;;19.30;99.90;;;;;;5108977;27;20039;-70
2022/08/25 06:04:36;;;;;;;7.00;4.10;;;19.40;99.90;;;;;;5109062;28;20039;-83
2022/08/25 06:07:02;;;;;;;8.85;3.95;;;19.50;99.90;;;;;;5144347;27;20616;-83
2022/08/25 06:09:27;;;;;;;7.18;4.20;;;19.60;99.90;;;;;;5099229;28;20038;-83
2022/08/25 06:11:53;;;;;;;6.85;3.92;;;19.70;99.90;;;;;;5113113;28;20415;-79
2022/08/25 06:14:19;;;;;;;7.82;5.00;;;19.80;99.90;;;;;;5124907;27;20048;-69
2022/08/25 06:16:47;;;;;;;8.77;5.00;;;19.90;99.90;;;;;;5081817;28;20048;-69
2022/08/25 06:19:13;;;;;;;8.82;5.20;;;19.90;99.90;;;;;;5108759;28;20051;-69
2022/08/25 06:21:39;;;;;;;8.55;4.82;;;20.00;99.90;;;;;;5091845;28;20075;-69
2022/08/25 06:24:05;;;;;;;9.27;5.07;;;20.00;99.90;;;;;;5101307;28;20078;-69
2022/08/25 06:26:31;;;;;;;10.02;4.80;;;20.10;99.90;;;;;;5087415;28;20054;-69
2022/08/25 06:28:57;;;;;;;10.20;4.90;;;20.10;99.90;;;;;;5074615;28;20555;-69
2022/08/25 06:31:23;;;;;;;9.13;6.07;;;20.20;99.90;;;;;;5091316;28;20036;-69
2022/08/25 06:33:49;;;;;;;9.48;5.18;;;20.30;99.90;;;;;;5092025;28;20046;-69
2022/08/25 06:36:15;;;;;;;10.35;5.88;;;20.30;99.90;;;;;;5091459;28;20036;-69
2022/08/25 06:38:40;;;;;;;9.35;5.35;;;20.40;99.90;;;;;;5074897;28;20377;-69
2022/08/25 06:41:09;;;;;;;8.93;5.95;;;20.40;99.90;;;;;;5125609;28;20047;-69
2022/08/25 06:43:35;;;;;;;10.23;5.80;;;20.50;99.90;;;;;;5074751;28;20036;-68
2022/08/25 06:46:12;;;;;;;10.90;5.75;;;20.50;99.90;;;;;;5091188;28;20485;-69
2022/08/25 06:48:38;;;;;;;9.60;5.25;;;20.60;99.90;;;;;;5076641;28;20113;-69
2022/08/25 06:51:06;;;;;;;9.75;5.00;;;20.60;99.90;;;;;;5077133;28;20070;-69
2022/08/25 06:53:32;;;;;;;10.90;6.00;;;20.70;99.90;;;;;;5078530;28;20380;-69
2022/08/25 06:55:57;;;;;;;10.57;4.85;;;20.80;99.90;;;;;;5094631;28;20038;-69
2022/08/25 06:58:23;;;;;;;8.80;5.22;;;20.90;99.90;;;;;;5144589;27;20047;-69
2022/08/25 07:00:49;;;;;;;8.95;5.05;;;21.10;99.90;;;;;;5083793;28;20495;-69
2022/08/25 07:03:14;;;;;;;10.95;5.32;;;21.20;99.90;;;;;;5148864;27;20035;-69
2022/08/25 07:05:40;;;;;;;10.27;5.05;;;21.30;99.90;;;;;;5145229;27;20407;-69
2022/08/25 07:08:06;;;;;;;8.50;5.15;;;21.40;99.90;;;;;;5149486;27;20038;-69
2022/08/25 07:10:31;;;;;;;10.10;5.80;;;21.50;99.90;;;;;;5093863;28;20027;-69
2022/08/25 07:12:57;;;;;;;8.85;5.00;;;21.60;99.90;;;;;;5096478;28;20495;-69
2022/08/25 07:15:22;;;;;;;9.18;5.07;;;21.70;99.90;;;;;;5111198;28;20044;-69
2022/08/25 07:17:49;;;;;;;8.80;5.00;;;21.80;99.90;;;;;;5077374;28;20035;-69
2022/08/25 07:20:15;;;;;;;10.30;5.30;;;21.90;99.90;;;;;;5077695;28;20418;-69
2022/08/25 07:22:41;;;;;;;11.02;5.32;;;22.10;99.90;;;;;;5085609;28;20495;-69
2022/08/25 07:25:10;;;;;;;12.38;5.43;;;22.10;99.90;;;;;;5147485;27;20070;-69
2022/08/25 07:27:37;;;;;;;9.02;5.05;;;22.30;99.90;;;;;;5113650;28;20044;-69
2022/08/25 07:30:05;;;;;;;11.05;5.43;;;22.40;99.90;;;;;;5088502;28;20052;-69
2022/08/25 07:32:30;;;;;;;10.52;4.57;;;22.40;99.90;;;;;;5097158;28;20040;-69
2022/08/25 07:35:14;;;;;;;11.25;5.00;;;22.50;99.90;;;;;;5085022;28;20105;-69
2022/08/25 07:37:42;;;;;;;8.40;4.85;;;22.60;99.90;;;;;;5078624;28;20028;-69
2022/08/25 07:40:10;;;;;;;7.50;4.70;;;22.70;99.90;;;;;;5111517;28;20480;-69
2022/08/25 07:42:36;;;;;;;8.05;4.65;;;22.80;99.90;;;;;;5095152;28;20035;-69
2022/08/25 07:45:04;;;;;;;9.80;5.07;;;22.90;99.90;;;;;;5094409;28;20047;-69
2022/08/25 07:47:30;;;;;;;8.40;4.95;;;23.00;99.90;;;;;;5093813;28;20511;-69
2022/08/25 07:49:56;;;;;;;9.77;5.35;;;23.10;99.90;;;;;;5088684;28;20039;-69
2022/08/25 07:52:21;;;;;;;9.75;4.93;;;23.10;99.90;;;;;;5096575;28;20055;-69
2022/08/25 07:54:47;;;;;;;10.35;5.15;;;23.20;99.90;;;;;;5094521;28;20411;-70
2022/08/25 07:57:13;;;;;;;8.93;5.00;;;23.30;99.90;;;;;;5128777;27;20044;-74
2022/08/25 07:59:40;;;;;;;10.27;5.20;;;23.30;99.90;;;;;;5089396;28;20039;-76
2022/08/25 08:02:11;;;;;;;10.43;5.45;;;23.40;99.90;;;;;;5092700;28;20365;-77
2022/08/25 08:04:37;;;;;;;9.33;4.90;;;23.40;99.90;;;;;;5083935;28;20039;-77
2022/08/25 08:07:05;;;;;;;8.40;4.90;;;23.50;99.90;;;;;;5078397;28;20372;-76
2022/08/25 08:09:30;;;;;;;9.75;4.93;;;23.60;99.90;;;;;;5096249;28;20083;-76
2022/08/25 08:11:56;;;;;;;10.95;5.43;;;23.70;99.90;;;;;;5112547;28;20480;-75
2022/08/25 08:14:22;;;;;;;8.25;4.47;;;23.70;99.90;;;;;;5112870;28;20050;-80
2022/08/25 08:16:48;;;;;;;10.52;5.10;;;23.80;99.90;;;;;;5111749;28;20062;-77
2022/08/25 08:19:14;;;;;;;7.00;4.50;;;23.80;99.90;;;;;;5094929;28;20048;-77
2022/08/25 08:21:40;;;;;;;7.22;4.88;;;23.90;99.90;;;;;;5110634;28;20093;-75
2022/08/25 08:24:07;;;;;;;7.95;4.90;;;24.00;99.90;;;;;;5094689;28;20047;-76
2022/08/25 08:26:32;;;;;;;9.15;4.28;;;24.10;99.90;;;;;;5092786;28;20046;-76
2022/08/25 08:28:59;;;;;;;10.70;4.53;;;24.20;99.90;;;;;;5131687;27;20475;-76
2022/08/25 08:31:27;;;;;;;8.70;4.80;;;24.30;99.90;;;;;;5093808;28;20081;-76
2022/08/25 08:33:54;;;;;;;9.68;4.72;;;24.30;99.90;;;;;;5112752;28;20467;-76
2022/08/25 08:36:21;;;;;;;9.50;4.50;;;24.40;99.90;;;;;;5086930;28;20400;-75
2022/08/25 08:38:48;;;;;;;9.27;4.68;;;24.50;99.90;;;;;;5099357;28;20059;-76
2022/08/25 08:44:26;;;;;;;8.23;4.25;;;24.80;99.90;;;;;;5108568;28;20492;-72
2022/08/25 08:47:07;;;;;;;9.75;4.10;;;24.90;99.90;;;;;;5100723;28;20071;-72
2022/08/25 08:50:09;;;;;;;8.57;4.43;;;25.10;99.90;;;;;;5102370;28;20108;-73
2022/08/25 08:53:00;;;;;;;8.52;4.25;;;25.20;99.90;;;;;;5046351;28;20487;-72
2022/08/25 08:55:31;;;;;;;8.73;4.50;;;25.40;99.90;;;;;;5092720;28;20044;-73
2022/08/25 08:58:00;;;;;;;8.38;4.63;;;25.40;99.90;;;;;;5091289;28;20042;-73
2022/08/25 09:00:27;;;;;;;12.80;4.72;;;25.60;99.90;;;;;;5093867;28;20479;-73
2022/08/25 09:03:07;;;;;;;7.30;4.30;;;25.70;99.90;;;;;;5108858;28;20039;-72
2022/08/25 09:05:46;;;;;;;8.43;4.63;;;25.80;99.90;;;;;;5097281;28;20044;-72
2022/08/25 09:08:13;;;;;;;10.00;4.28;;;25.90;99.90;;;;;;5104519;28;20036;-72
2022/08/25 09:11:01;;;;;;;8.40;4.22;;;26.10;99.90;;;;;;5104189;28;20496;-72
2022/08/25 09:13:56;;;;;;;9.07;4.53;;;26.20;99.90;;;;;;5100195;28;20095;-73
2022/08/25 09:16:59;;;;;;;8.75;4.40;;;26.20;99.90;;;;;;5107701;28;20507;-72
2022/08/25 09:19:51;;;;;;;9.15;4.30;;;26.30;99.90;;;;;;5110289;28;20036;-72
2022/08/25 09:22:25;;;;;;;6.85;3.88;;;26.40;99.90;;;;;;5104790;28;20078;-72
2022/08/25 09:25:06;;;;;;;8.25;3.90;;;26.50;99.90;;;;;;5095855;28;20144;-72
2022/08/25 09:27:31;;;;;;;8.05;3.60;;;26.50;99.90;;;;;;5092219;28;20063;-72
2022/08/25 09:30:05;;;;;;;8.95;3.75;;;26.60;99.90;;;;;;5081569;28;20115;-73
2022/08/25 09:32:36;;;;;;;9.40;3.53;;;26.90;99.40;;;;;;5111436;28;20051;-73
2022/08/25 09:35:03;;;;;;;9.00;3.63;;;26.90;97.40;;;;;;5092887;28;20040;-80
2022/08/25 09:37:28;;;;;;;7.43;3.42;;;27.00;97.70;;;;;;5075847;28;20044;-80
2022/08/25 09:39:54;;;;;;;7.32;3.33;;;27.00;98.20;;;;;;5108893;27;20093;-81
2022/08/25 09:42:20;;;;;;;6.65;3.38;;;27.00;98.10;;;;;;5083601;28;20036;-81
2022/08/25 09:44:47;;;;;;;6.97;3.40;;;27.00;97.70;;;;;;5126337;27;20032;-81
2022/08/25 09:47:19;;;;;;;9.82;3.42;;;27.10;97.60;;;;;;5107278;28;20039;-81
2022/08/25 09:49:47;;;;;;;8.55;3.33;;;27.20;97.00;;;;;;5086941;28;20039;-80
2022/08/25 09:52:31;;;;;;;9.07;3.30;;;27.30;96.40;;;;;;5078068;28;20044;-80
2022/08/25 09:55:30;;;;;;;7.28;3.30;;;27.40;96.50;;;;;;5089517;28;20059;-72
2022/08/25 09:57:57;;;;;;;5.20;2.90;;;27.50;94.80;;;;;;5102140;28;20496;-72
2022/08/25 10:00:29;;;;;;;8.63;3.60;;;27.70;93.60;;;;;;5090613;28;20032;-74
2022/08/25 10:03:01;;;;;;;6.72;3.08;;;27.70;94.40;;;;;;5106036;28;20040;-73
2022/08/25 10:05:27;;;;;;;;;;;27.70;94.10;;;;;;5093108;28;20559;-73
2022/08/25 10:07:58;;;;;;;6.63;3.15;;;27.80;94.80;;;;;;5104517;28;19999;-73
2022/08/25 10:10:32;;;;;;;;;;;27.90;95.40;;;;;;5093972;28;20044;-73
2022/08/25 10:12:59;;;;;;;8.27;3.50;;;28.00;94.50;;;;;;5111149;28;20368;-73
2022/08/25 10:15:37;;;;;;;8.60;3.50;;;28.00;93.80;;;;;;5110930;28;20043;-73
2022/08/25 10:18:16;;;;;;;5.35;2.70;;;28.00;92.70;;;;;;5105302;28;20036;-74
2022/08/25 10:20:41;;;;;;;6.97;2.88;;;28.20;87.30;;;;;;5093121;28;20031;-73
2022/08/25 10:23:12;;;;;;;8.57;3.22;;;28.20;88.60;;;;;;5086552;28;20510;-72
2022/08/25 10:25:45;;;;;;;7.53;3.10;;;28.20;88.50;;;;;;5098500;28;20035;-72
2022/08/25 10:28:36;;;;;;;6.60;3.20;;;28.10;87.80;;;;;;5077828;28;20044;-73
2022/08/25 10:31:26;;;;;;;6.18;2.90;;;28.20;87.80;;;;;;5102725;28;20120;-73
2022/08/25 10:33:57;;;;;;;6.10;3.10;;;28.30;85.00;;;;;;5130160;27;20071;-73
2022/08/25 10:36:35;;;;;;;8.88;3.38;;;28.30;88.70;;;;;;5096108;28;20043;-73
2022/08/25 10:39:01;;;;;;;4.93;2.80;;;28.40;90.10;;;;;;5078704;28;20051;-73
2022/08/25 10:41:37;;;;;;;6.28;2.70;;;28.50;89.90;;;;;;5117070;27;20035;-73
2022/08/25 10:47:37;;;;;;;8.73;3.10;;;28.50;86.40;;;;;;5096761;28;20972;-73
2022/08/25 10:50:19;;;;;;;5.90;2.90;;;28.60;85.00;;;;;;5088645;28;20044;-72
2022/08/25 10:53:23;;;;;;;5.68;3.33;;;28.60;85.10;;;;;;5092209;28;20040;-71
2022/08/25 10:56:17;;;;;;;5.82;2.97;;;28.60;80.20;;;;;;5111005;28;20039;-74
2022/08/25 10:58:51;;;;;;;5.88;3.03;;;28.70;85.20;;;;;;5097057;28;20040;-73
2022/08/25 11:01:36;;;;;;;6.38;3.33;;;28.70;84.10;;;;;;5129808;27;20071;-71
2022/08/25 11:04:20;;;;;;;8.50;3.22;;;28.70;82.30;;;;;;5078818;28;20502;-71
2022/08/25 11:07:11;;;;;;;6.65;3.15;;;28.80;82.30;;;;;;5095550;28;20039;-72
2022/08/25 11:09:41;;;;;;;5.65;2.75;;;28.90;81.20;;;;;;5095542;28;20101;-71
2022/08/25 11:12:42;;;;;;;6.85;2.95;;;28.90;80.90;;;;;;5078398;28;20036;-71
2022/08/25 11:15:18;;;;;;;8.90;3.10;;;29.00;79.10;;;;;;5091128;28;20137;-71
2022/08/25 11:18:03;;;;;;;6.18;2.90;;;29.00;76.40;;;;;;5078381;28;20035;-71
2022/08/25 11:20:50;;;;;;;7.50;2.80;;;29.00;77.70;;;;;;5095524;28;20044;-72
2022/08/25 11:23:25;;;;;;;5.82;2.85;;;29.00;79.10;;;;;;5095134;28;20040;-72
2022/08/25 11:25:56;;;;;;;5.53;3.10;;;29.10;78.10;;;;;;5095236;28;20050;-72
2022/08/25 11:28:38;;;;;;;6.80;2.80;;;29.10;75.40;;;;;;5078253;28;20040;-72
2022/08/25 11:31:05;;;;;;;6.90;3.10;;;29.10;76.40;;;;;;5078436;28;20044;-72
2022/08/25 11:33:31;;;;;;;7.28;3.13;;;29.10;76.80;;;;;;5077867;28;20044;-72
2022/08/25 11:36:12;;;;;;;6.35;3.00;;;29.20;75.00;;;;;;5095003;28;20071;-72
2022/08/25 11:38:59;;;;;;;6.35;2.95;;;29.20;75.70;;;;;;5129090;27;20032;-72
2022/08/25 11:42:13;;;;;;;6.70;2.92;;;29.20;75.60;;;;;;5128659;27;20178;-72
2022/08/25 11:44:49;;;;;;;6.68;3.15;;;29.20;75.90;;;;;;5077193;28;20051;-72
2022/08/25 11:47:15;;;;;;;8.45;3.28;;;29.30;75.20;;;;;;5129141;27;20047;-72
2022/08/25 11:49:46;;;;;;;8.00;2.70;;;29.30;74.90;;;;;;5095955;28;20504;-72
2022/08/25 11:52:30;;;;;;;5.75;2.80;;;29.30;72.90;;;;;;5128895;27;20078;-72
2022/08/25 11:55:12;;;;;;;5.78;3.10;;;29.20;72.50;;;;;;5128811;27;20048;-72
2022/08/25 11:57:38;;;;;;;5.75;3.00;;;29.20;71.00;;;;;;5095957;28;20032;-71
2022/08/25 12:00:29;;;;;;;5.93;2.95;;;29.10;71.30;;;;;;5095737;28;20036;-72
2022/08/25 12:02:55;;;;;;;8.90;3.10;;;29.20;74.10;;;;;;5084611;28;20048;-72
2022/08/25 12:05:23;;;;;;;7.93;3.17;;;29.20;74.90;;;;;;5128509;27;20039;-71
2022/08/25 12:10:58;;;;;;;4.88;3.22;;;29.30;73.50;;;;;;5095608;28;20040;-72
2022/08/25 12:13:41;;;;;;;6.55;3.30;;;29.20;73.50;;;;;;5095133;28;20074;-72
2022/08/25 12:16:31;;;;;;;6.78;3.25;;;29.20;74.80;;;;;;5094244;28;20044;-72
2022/08/25 12:19:28;;;;;;;7.57;3.50;;;29.20;72.90;;;;;;5095476;28;20041;-72
2022/08/25 12:22:17;;;;;;;7.22;3.58;;;29.10;73.90;;;;;;5094104;28;20545;-72
2022/08/25 12:24:43;;;;;;;7.00;2.72;;;29.00;73.70;;;;;;5093902;28;20048;-72
2022/08/25 12:27:29;;;;;;;5.85;2.72;;;29.10;72.10;;;;;;5128034;27;20047;-72
2022/08/25 12:30:20;;;;;;;5.82;2.97;;;29.10;71.00;;;;;;5093923;28;20043;-72
2022/08/25 12:33:23;;;;;;;5.53;2.90;;;29.10;70.00;;;;;;5093780;28;20100;-72
2022/08/25 12:36:00;;;;;;;6.22;3.10;;;29.10;72.10;;;;;;5093792;28;20055;-71
2022/08/25 12:38:48;;;;;;;6.22;3.00;;;29.10;71.00;;;;;;5093760;28;20123;-71
2022/08/25 12:41:17;;;;;;;5.93;3.00;;;29.20;70.20;;;;;;5095046;28;20048;-72
2022/08/25 12:43:48;;;;;;;5.28;2.78;;;29.20;68.30;;;;;;5095019;28;20135;-71
2022/08/25 12:46:26;;;;;;;5.40;2.63;;;29.10;65.30;;;;;;5076768;28;20048;-71
2022/08/25 12:49:17;;;;;;;5.45;2.72;;;29.20;64.20;;;;;;5093589;28;20047;-71
2022/08/25 12:51:55;;;;;;;;;;;29.10;66.70;;;;;;5094172;28;20040;-71
2022/08/25 12:54:40;;;;;;;6.85;2.42;;;29.00;67.60;;;;;;5093508;28;19916;-72
2022/08/25 12:57:21;;;;;;;5.20;2.83;;;29.10;61.90;;;;;;5075931;28;20055;-71
2022/08/25 12:59:55;;;;;;;6.35;2.80;;;29.00;65.90;;;;;;5127878;27;20434;-72
2022/08/25 13:02:35;;;;;;;7.22;3.00;;;29.10;65.20;;;;;;5094686;28;20051;-71
2022/08/25 13:05:16;;;;;;;10.15;3.08;;;29.00;66.20;;;;;;5076466;28;20083;-72
2022/08/25 13:07:57;;;;;;;6.60;3.10;;;29.00;67.40;;;;;;5094530;28;20098;-72
2022/08/25 13:10:37;;;;;;;6.00;2.88;;;29.00;66.70;;;;;;5127383;27;20082;-72
2022/08/25 13:13:13;;;;;;;5.57;2.72;;;29.00;67.90;;;;;;5093239;28;20044;-72
2022/08/25 13:15:43;;;;;;;8.02;3.20;;;29.10;65.40;;;;;;5094198;28;20127;-72
2022/08/25 13:18:12;;;;;;;7.63;3.28;;;29.10;66.60;;;;;;5093032;28;20072;-72